METAR Data
IDs: Format: Raw Decoded Include TAF

Data at: 0342 UTC 06 Dec 2019

Region: TOP
KATL 060252Z 00000KT 10SM BKN170 11/M02 A3017 RMK AO2 SLP218 T01061017 53008 $

KBOS 060254Z 28015G22KT 10SM SCT060 02/M08 A2989 RMK AO2 SLP121 T00171078 51030

KBWI 060254Z 00000KT 10SM FEW200 00/M06 A3015 RMK AO2 SLP209 T00001056 51017 $

KCLE 060251Z 16007KT 10SM OVC110 01/M02 A3007 RMK AO2 SLP190 T00111022 58009

KCLT 060252Z 15003KT 10SM CLR 08/M04 A3019 RMK AO2 SLP222 T00831039 51013

KCVG 060252Z 18007KT 10SM CLR 03/M03 A3007 RMK AO2 SLP186 T00331028 58001

KDCA 060252Z 00000KT 10SM BKN250 04/M04 A3017 RMK AO2 SLP214 T00441044 51016

KDEN 060253Z 24005KT 6SM BR FEW007 FEW035 OVC050 01/00 A3023 RMK AO2 SNE41 SLP243 P0000 60000 T00060000 51024

KDFW 060253Z 17008KT 10SM BKN110 BKN250 18/14 A2988 RMK AO2 SLP114 T01830139 51012

KDTW 060253Z 16004KT 10SM BKN075 OVC120 03/M01 A3002 RMK AO2 SLP170 T00331011 58009

KEWR 060251Z 29014KT 10SM BKN050 03/M06 A3007 RMK AO2 PK WND 28031/0232 SLP183 T00331061 51029

KFLL 060253Z 34005KT 10SM BKN250 15/07 A3015 RMK AO2 SLP208 T01500072 51012

KIAD 060252Z 00000KT 10SM SCT160 OVC250 00/M05 A3015 RMK AO2 SLP211 T00001050 51015

KIAH 060253Z 16005KT 10SM FEW030 BKN250 18/14 A3001 RMK AO2 SLP161 T01830139 51007

KJFK 060251Z 30014KT 10SM BKN050 04/M05 A3007 RMK AO2 SLP181 T00391050 53028

KLAS 060256Z 34004KT 10SM SCT180 BKN220 12/07 A3019 RMK AO2 SLP220 T01220072 53015

KLAX 060253Z 34004KT 10SM FEW200 SCT250 17/12 A3009 RMK AO2 SLP188 T01670122 52002

KLGA 060251Z 30014G26KT 10SM BKN050 04/M06 A3005 RMK AO2 PK WND 27029/0226 SLP175 T00391061 53028

KMCO 060253Z 00000KT 10SM BKN250 14/08 A3020 RMK AO2 SLP225 T01390078 51012

KMDW 060253Z 19007KT 10SM BKN130 OVC170 07/02 A2994 RMK AO2 SLP146 T00720017 58007

KMEM 060254Z 17008KT 10SM BKN110 14/04 A3004 RMK AO2 SLP171 T01390039 55005 $

KMIA 060253Z 33004KT 10SM BKN250 17/08 A3016 RMK AO2 SLP213 T01720078 51014

KMSP 060253Z 01019G30KT 10SM OVC020 01/M04 A3007 RMK AO2 PK WND 36032/0231 SLP193 T00061039 51042

KORD 060251Z 19007KT 10SM FEW120 BKN140 OVC170 06/02 A2992 RMK AO2 SLP137 T00610022 58007

KPDX 060253Z 00000KT 10SM FEW090 SCT250 07/03 A3000 RMK AO2 SLP158 T00720033 57005

KPHL 060254Z 28006KT 10SM BKN050 05/M06 A3012 RMK AO2 SLP200 T00501056 51024 $

KPHX 060251Z 00000KT 10SM FEW060 SCT250 17/10 A3013 RMK AO2 SLP194 T01720100 53020

KPIT 060251Z 00000KT 10SM FEW095 SCT250 01/M05 A3009 RMK AO2 SLP207 T00061050 51001

KSAN 060251Z 00000KT 10SM BKN250 16/14 A3009 RMK AO2 SLP190 T01610144 55000 $

KSEA 060253Z 27004KT 7SM BKN047 BKN085 08/06 A3002 RMK AO2 SLP174 T00780056 55004

KSFO 060256Z 35005KT 10SM FEW017 BKN033 OVC050 13/11 A3004 RMK AO2 SLP171 T01330111 53004

KSLC 060322Z 00000KT 3SM BR OVC030 02/01 A3028 RMK AO2 T00220011

KSTL 060251Z 16008KT 10SM OVC110 12/02 A2998 RMK AO2 SLP154 T01170022 53004 $

KTPA 060253Z 04003KT 10SM SCT340 14/07 A3019 RMK AO2 SLP221 T01390072 50012